עמוד ראשי
METAR-TAF:

שדות תעופה :

שטוטגרט, גרמניה

קו רוחב: 48-41N, קו אורך: 009-13E, גובה: 396מטר

תצפית מזג אוויר נוכחית

הדו"ח נערך לפני 29דקות, בשעה 21:50 UTC
רוח 1קשר מכיוון דרום
טמפרטורת 21 צלסיוס
לחות 78%
לחץ 1020 hPa
ראות 10 קילומטר או יותר
מעט עננים בגובה 3000רגל
עננים בינוניים בגובה 3900רגל

METAR: EDDS 242150Z 19001KT 9999 FEW030 BKN039 21/17 Q1020

זמן: 00:19 (22:19 UTC)

תחזית

הדו"ח נערך לפני 5 שעות ו 19דקות, בשעה 17:00 UTC
תחזית בתוקף מ 24 ב 18 UTC עד 25 ב 18 UTC
רוח 5קשר מכיוון צפון/צפון-מערב
ראות 10 קילומטר או יותר
עננים פזורים בגובה 3000רגל
הסתברות 30% :
זמנית מ -
24 ב 18 UTC עד 24 ב 20 UTC
עננים בינוניים בגובה 2500רגל , קומולונימבוס.
סופת רעמים, גשם
יעשה מ
24 ב 19 UTC עד 24 ב 21 UTC
רוח 3קשר עם כיוונים משתנים
יעשה מ
25 ב 09 UTC עד 25 ב 11 UTC
רוח 6קשר מכיוון מערב/צפון-מערב

TAF: EDDS 241700Z 2418/2518 33005KT 9999 SCT030 PROB30 TEMPO 2418/2420 TSRA BKN025CB BECMG 2419/2421 VRB03KT BECMG 2509/2511 30006KT

METAR-TAF

תצפיות ותחזיות מזג אוויר לגבי יותר מ- 4,000 שדות תעופה ברחבי העולם. דוחות METAR ו- TAF.

התחנות הזמינות מסומנות בנקודות צהובות ואדומות על גבי המפה.

העבר את העכבר לנקודה הצבעונית על מנת לראות את שם התחנה.

לאחר מכן, לחץ כדי לראות את תוכן ואת תחזיות מזג האוויר.

כדי לשנות את המפה: לחץ על הכפתורים הירוקים עם הפלוס השחור כדי להתקרב; על הכפתור הירוק עם המקף כדי להתרחק; או בחיצים הירוקים למפות סמוכות.


METAR-TAF: